Time;durP1;ratioP1;P1;durP2;ratioP2;P2;SDS_P1;SDS_P2;PMS_P1;PMS_P2;Temp;Humidity;BMP_temperature;BMP_pressure;BME280_temperature;BME280_humidity;BME280_pressure;Samples;Min_cycle;Max_cycle;Signal;HPM_P1;HPM_P2
2022/12/02 00:01:21;;;;;;;10.88;7.93;;;;;;;;;;5069563;28;20036;-64
2022/12/02 00:03:47;;;;;;;12.27;8.27;;;;;;;;;;5071046;28;20048;-64
2022/12/02 00:06:29;;;;;;;11.23;7.70;;;;;;;;;;5071976;28;20032;-63
2022/12/02 00:09:02;;;;;;;11.95;7.70;;;;;;;;;;5070981;28;20029;-64
2022/12/02 00:11:31;;;;;;;12.05;8.27;;;;;;;;;;5072022;28;20107;-64
2022/12/02 00:13:59;;;;;;;12.50;8.10;;;;;;;;;;5075010;28;20460;-64
2022/12/02 00:16:26;;;;;;;11.75;8.02;;;;;;;;;;5076327;28;20036;-64
2022/12/02 00:18:52;;;;;;;11.57;7.70;;;;;;;;;;5076011;28;20053;-64
2022/12/02 00:21:19;;;;;;;11.32;7.75;;;;;;;;;;5076320;28;20048;-63
2022/12/02 00:23:44;;;;;;;12.07;7.75;;;;;;;;;;5076336;28;20025;-64
2022/12/02 00:26:10;;;;;;;10.55;7.85;;;;;;;;;;5076256;28;20168;-64
2022/12/02 00:28:36;;;;;;;10.70;7.95;;;;;;;;;;5076227;28;20099;-63
2022/12/02 00:31:02;;;;;;;11.45;8.38;;;;;;;;;;5075893;28;20536;-64
2022/12/02 00:33:27;;;;;;;10.75;7.88;;;;;;;;;;5075904;28;20025;-63
2022/12/02 00:35:53;;;;;;;12.05;7.68;;;;;;;;;;5075742;28;20032;-64
2022/12/02 00:38:18;;;;;;;10.70;7.60;;;;;;;;;;5076032;28;20075;-64
2022/12/02 00:40:44;;;;;;;10.18;7.63;;;;;;;;;;5075633;28;20434;-64
2022/12/02 00:48:38;;;;;;;11.60;7.47;;;;;;;;;;5075610;28;20028;-64
2022/12/02 00:51:04;;;;;;;12.85;7.78;;;;;;;;;;5075424;28;20032;-64
2022/12/02 00:53:30;;;;;;;12.00;7.55;;;;;;;;;;5075724;28;20029;-64
2022/12/02 00:55:56;;;;;;;10.35;7.07;;;;;;;;;;5075335;28;20025;-64
2022/12/02 00:58:22;;;;;;;11.32;7.88;;;;;;;;;;5075376;28;20534;-63
2022/12/02 01:00:47;;;;;;;10.38;7.30;;;;;;;;;;5075253;28;20024;-63
2022/12/02 01:03:13;;;;;;;11.75;7.78;;;;;;;;;;5057414;28;20024;-63
2022/12/02 01:05:38;;;;;;;10.00;7.35;;;;;;;;;;5075497;28;20025;-64
2022/12/02 01:08:04;;;;;;;10.10;7.28;;;;;;;;;;5075271;28;20029;-64
2022/12/02 01:10:30;;;;;;;11.25;7.32;;;;;;;;;;5075078;28;20024;-64
2022/12/02 01:12:55;;;;;;;10.50;7.40;;;;;;;;;;5075403;28;20029;-64
2022/12/02 01:15:21;;;;;;;9.55;6.85;;;;;;;;;;5075069;28;20595;-64
2022/12/02 01:17:46;;;;;;;10.60;7.35;;;;;;;;;;5074919;28;20048;-64
2022/12/02 01:20:12;;;;;;;11.07;7.72;;;;;;;;;;5074974;28;20027;-64
2022/12/02 01:22:38;;;;;;;8.40;6.90;;;;;;;;;;5074871;28;20491;-64
2022/12/02 01:25:04;;;;;;;11.35;7.30;;;;;;;;;;5074687;28;20021;-64
2022/12/02 01:27:29;;;;;;;10.40;7.47;;;;;;;;;;5074783;28;20067;-65
2022/12/02 01:29:55;;;;;;;9.95;7.07;;;;;;;;;;5074701;28;20056;-65
2022/12/02 01:32:22;;;;;;;10.35;7.70;;;;;;;;;;5075015;28;20062;-64
2022/12/02 01:34:48;;;;;;;10.05;7.10;;;;;;;;;;5074808;28;20067;-64
2022/12/02 01:37:13;;;;;;;11.55;7.40;;;;;;;;;;5074566;28;20032;-64
2022/12/02 01:39:39;;;;;;;9.63;7.18;;;;;;;;;;5074823;28;20032;-64
2022/12/02 01:42:04;;;;;;;10.27;6.43;;;;;;;;;;5074826;28;20111;-64
2022/12/02 01:44:30;;;;;;;8.65;6.65;;;;;;;;;;5074440;28;20017;-64
2022/12/02 01:46:56;;;;;;;9.68;7.38;;;;;;;;;;5074507;28;20051;-64
2022/12/02 01:49:22;;;;;;;10.45;7.45;;;;;;;;;;5074452;28;20411;-63
2022/12/02 01:51:48;;;;;;;10.82;7.35;;;;;;;;;;5074401;28;20029;-63
2022/12/02 01:54:13;;;;;;;9.05;7.18;;;;;;;;;;5074545;28;20029;-63
2022/12/02 01:56:39;;;;;;;11.38;7.25;;;;;;;;;;5074321;28;20435;-63
2022/12/02 01:59:05;;;;;;;9.02;7.28;;;;;;;;;;5074512;28;20027;-63
2022/12/02 02:01:33;;;;;;;9.40;7.45;;;;;;;;;;5074186;28;20456;-63
2022/12/02 02:04:00;;;;;;;10.68;7.32;;;;;;;;;;5074163;28;20028;-63
2022/12/02 02:06:30;;;;;;;11.88;7.32;;;;;;;;;;5074162;28;20040;-63
2022/12/02 02:08:56;;;;;;;9.75;7.40;;;;;;;;;;5074040;28;20033;-64
2022/12/02 02:11:22;;;;;;;10.18;6.78;;;;;;;;;;5074056;28;20039;-64
2022/12/02 02:13:48;;;;;;;12.07;6.93;;;;;;;;;;5074284;28;20028;-65
2022/12/02 02:16:14;;;;;;;10.93;7.35;;;;;;;;;;5074096;28;20483;-65
2022/12/02 02:18:40;;;;;;;9.48;7.20;;;;;;;;;;5073733;28;20489;-64
2022/12/02 02:21:09;;;;;;;10.20;7.05;;;;;;;;;;5073818;28;20033;-64
2022/12/02 02:23:36;;;;;;;;;;;;;;;;;;5074483;28;20049;-64
2022/12/02 02:26:02;;;;;;;9.07;6.40;;;;;;;;;;5073660;28;19974;-64
2022/12/02 02:28:28;;;;;;;10.65;7.70;;;;;;;;;;5073622;28;20112;-64
2022/12/02 02:30:55;;;;;;;9.27;6.80;;;;;;;;;;5073610;28;20100;-64
2022/12/02 02:33:22;;;;;;;9.38;6.85;;;;;;;;;;5073839;28;20082;-64
2022/12/02 02:35:48;;;;;;;10.48;7.38;;;;;;;;;;5073036;28;20055;-65
2022/12/02 02:38:18;;;;;;;9.18;6.95;;;;;;;;;;5073375;28;20421;-64
2022/12/02 02:40:44;;;;;;;9.52;7.38;;;;;;;;;;5073395;28;20028;-64
2022/12/02 02:43:10;;;;;;;8.73;6.57;;;;;;;;;;5073452;28;20472;-66
2022/12/02 02:45:38;;;;;;;9.68;7.05;;;;;;;;;;5073367;28;20036;-65
2022/12/02 02:48:06;;;;;;;9.90;7.03;;;;;;;;;;5073217;28;20024;-65
2022/12/02 02:50:34;;;;;;;7.95;6.43;;;;;;;;;;5073251;28;20020;-65
2022/12/02 02:53:00;;;;;;;9.70;7.50;;;;;;;;;;5073389;28;20040;-65
2022/12/02 02:55:26;;;;;;;9.60;6.70;;;;;;;;;;5073120;28;20074;-64
2022/12/02 02:57:53;;;;;;;11.32;7.75;;;;;;;;;;5073127;28;20024;-65
2022/12/02 03:00:20;;;;;;;9.32;6.75;;;;;;;;;;5072992;28;20020;-65
2022/12/02 03:02:50;;;;;;;9.48;6.90;;;;;;;;;;5073299;28;20121;-65
2022/12/02 03:05:17;;;;;;;8.82;7.20;;;;;;;;;;5073185;28;20025;-65
2022/12/02 03:07:42;;;;;;;8.32;6.63;;;;;;;;;;5072994;28;20028;-64
2022/12/02 03:10:09;;;;;;;10.05;7.00;;;;;;;;;;5072943;28;20048;-64
2022/12/02 03:12:35;;;;;;;8.32;6.43;;;;;;;;;;5072923;28;20024;-64
2022/12/02 03:15:02;;;;;;;8.13;6.85;;;;;;;;;;5072724;28;20028;-64
2022/12/02 03:17:27;;;;;;;8.27;6.95;;;;;;;;;;5072814;28;20048;-64
2022/12/02 03:19:53;;;;;;;10.30;7.10;;;;;;;;;;5072774;28;20561;-65
2022/12/02 03:22:19;;;;;;;8.43;6.32;;;;;;;;;;5073039;28;20035;-65
2022/12/02 03:24:44;;;;;;;8.82;6.80;;;;;;;;;;5073015;28;20021;-65
2022/12/02 03:27:11;;;;;;;8.30;6.50;;;;;;;;;;5073011;28;20419;-64
2022/12/02 03:29:37;;;;;;;9.60;6.65;;;;;;;;;;5072873;28;20029;-64
2022/12/02 03:32:03;;;;;;;8.82;6.60;;;;;;;;;;5054706;28;20048;-64
2022/12/02 03:34:29;;;;;;;9.00;7.13;;;;;;;;;;5072481;28;20369;-64
2022/12/02 03:36:56;;;;;;;9.05;6.90;;;;;;;;;;5072621;28;20024;-64
2022/12/02 03:39:21;;;;;;;9.60;7.00;;;;;;;;;;5072518;28;20077;-64
2022/12/02 03:41:47;;;;;;;8.32;6.65;;;;;;;;;;5072572;28;20104;-64
2022/12/02 03:44:14;;;;;;;9.35;6.43;;;;;;;;;;5072410;28;20467;-64
2022/12/02 03:46:41;;;;;;;9.30;7.32;;;;;;;;;;5072498;28;20028;-64
2022/12/02 03:49:07;;;;;;;9.30;6.85;;;;;;;;;;5072421;28;20020;-64
2022/12/02 03:51:32;;;;;;;8.68;6.88;;;;;;;;;;5072450;28;20036;-64
2022/12/02 03:54:00;;;;;;;10.95;6.90;;;;;;;;;;5072309;28;20040;-64
2022/12/02 03:56:26;;;;;;;9.55;6.95;;;;;;;;;;5072222;28;20028;-64
2022/12/02 03:58:53;;;;;;;9.77;6.97;;;;;;;;;;5072330;28;20066;-64
2022/12/02 04:01:20;;;;;;;9.82;7.22;;;;;;;;;;5072282;28;20108;-64
2022/12/02 04:03:46;;;;;;;9.88;7.03;;;;;;;;;;5072163;28;20029;-65
2022/12/02 04:06:12;;;;;;;9.02;6.65;;;;;;;;;;5072255;28;20033;-64
2022/12/02 04:08:38;;;;;;;9.68;6.97;;;;;;;;;;5072028;28;20032;-65
2022/12/02 04:11:04;;;;;;;8.60;6.57;;;;;;;;;;5071987;28;20024;-65
2022/12/02 04:13:30;;;;;;;10.20;6.35;;;;;;;;;;5072015;28;20074;-64
2022/12/02 04:15:55;;;;;;;9.63;6.88;;;;;;;;;;5053900;28;20029;-65
2022/12/02 04:18:21;;;;;;;9.40;7.28;;;;;;;;;;5071795;28;20437;-64
2022/12/02 04:20:46;;;;;;;9.40;7.07;;;;;;;;;;5072022;28;20020;-64
2022/12/02 04:23:12;;;;;;;9.10;7.22;;;;;;;;;;5072137;28;20837;-64
2022/12/02 04:25:38;;;;;;;8.38;6.60;;;;;;;;;;5071961;28;20024;-65
2022/12/02 04:28:03;;;;;;;8.85;6.82;;;;;;;;;;5071890;28;20024;-66
2022/12/02 04:30:29;;;;;;;8.82;6.68;;;;;;;;;;5072156;28;20027;-65
2022/12/02 04:32:55;;;;;;;10.65;6.95;;;;;;;;;;5071861;28;20104;-64
2022/12/02 04:35:21;;;;;;;10.52;7.07;;;;;;;;;;5071880;28;20117;-65
2022/12/02 04:37:46;;;;;;;8.93;6.57;;;;;;;;;;5072134;28;20029;-64
2022/12/02 04:40:12;;;;;;;8.60;6.45;;;;;;;;;;5072121;28;20514;-65
2022/12/02 04:42:38;;;;;;;10.57;6.82;;;;;;;;;;5053864;28;20074;-64
2022/12/02 04:45:04;;;;;;;9.82;6.53;;;;;;;;;;5071865;28;20471;-64
2022/12/02 04:47:30;;;;;;;10.82;7.15;;;;;;;;;;5071962;28;20021;-64
2022/12/02 04:49:56;;;;;;;7.85;6.25;;;;;;;;;;5071005;28;20427;-64
2022/12/02 04:52:22;;;;;;;9.85;6.70;;;;;;;;;;5070590;28;20021;-64
2022/12/02 04:54:47;;;;;;;10.27;7.07;;;;;;;;;;5071275;28;20079;-64
2022/12/02 04:57:13;;;;;;;9.15;7.07;;;;;;;;;;5071038;28;20047;-64
2022/12/02 04:59:39;;;;;;;8.95;6.68;;;;;;;;;;5073422;28;20021;-64
2022/12/02 05:02:04;;;;;;;10.43;6.68;;;;;;;;;;5075173;28;20023;-64
2022/12/02 05:04:30;;;;;;;8.60;6.55;;;;;;;;;;5075052;28;20529;-64
2022/12/02 05:06:55;;;;;;;9.50;6.78;;;;;;;;;;5075319;28;20028;-64
2022/12/02 05:09:21;;;;;;;9.05;6.40;;;;;;;;;;5075173;28;20032;-64
2022/12/02 05:11:46;;;;;;;8.50;6.63;;;;;;;;;;5075494;28;20029;-64
2022/12/02 05:14:12;;;;;;;9.63;6.90;;;;;;;;;;5075127;28;20372;-64
2022/12/02 05:16:37;;;;;;;7.88;6.47;;;;;;;;;;5075274;28;20021;-64
2022/12/02 05:19:03;;;;;;;9.65;6.95;;;;;;;;;;5074896;28;20048;-65
2022/12/02 05:21:28;;;;;;;10.35;6.60;;;;;;;;;;5075011;28;20024;-65
2022/12/02 05:23:54;;;;;;;9.82;7.22;;;;;;;;;;5074965;28;20020;-65
2022/12/02 05:26:19;;;;;;;8.95;6.93;;;;;;;;;;5074897;28;20430;-66
2022/12/02 05:28:45;;;;;;;8.40;6.75;;;;;;;;;;5074886;28;20484;-65
2022/12/02 05:31:10;;;;;;;9.57;6.70;;;;;;;;;;5074791;28;20074;-65
2022/12/02 05:33:36;;;;;;;9.27;6.75;;;;;;;;;;5074710;28;20384;-65
2022/12/02 05:36:01;;;;;;;8.73;6.60;;;;;;;;;;5074666;28;20036;-65
2022/12/02 05:38:27;;;;;;;9.93;6.22;;;;;;;;;;5074756;28;20023;-64
2022/12/02 05:40:54;;;;;;;10.05;6.60;;;;;;;;;;5074751;28;20574;-64
2022/12/02 05:43:23;;;;;;;8.95;7.03;;;;;;;;;;5074915;28;20395;-64
2022/12/02 05:45:49;;;;;;;10.98;7.45;;;;;;;;;;5074595;28;20034;-64
2022/12/02 05:48:18;;;;;;;7.57;6.10;;;;;;;;;;5056519;28;20021;-64
2022/12/02 05:50:44;;;;;;;9.18;6.75;;;;;;;;;;5056825;28;20032;-64
2022/12/02 05:53:28;;;;;;;8.10;6.38;;;;;;;;;;5074419;28;20029;-64
2022/12/02 05:55:55;;;;;;;9.43;6.43;;;;;;;;;;5074240;28;20039;-65
2022/12/02 05:58:22;;;;;;;9.18;6.70;;;;;;;;;;5074302;28;20094;-64
2022/12/02 06:00:54;;;;;;;8.98;6.50;;;;;;;;;;5074385;28;20028;-64
2022/12/02 06:03:20;;;;;;;9.63;6.45;;;;;;;;;;5074317;28;20027;-64
2022/12/02 06:05:47;;;;;;;9.23;6.25;;;;;;;;;;5074134;28;20027;-64
2022/12/02 06:08:20;;;;;;;7.97;6.30;;;;;;;;;;5074119;28;20095;-65
2022/12/02 06:11:11;;;;;;;9.70;6.93;;;;;;;;;;5073084;28;20028;-65
2022/12/02 06:13:37;;;;;;;10.45;6.75;;;;;;;;;;5073906;28;20028;-64
2022/12/02 06:16:11;;;;;;;9.65;6.93;;;;;;;;;;5073853;28;20298;-65
2022/12/02 06:18:37;;;;;;;7.85;6.15;;;;;;;;;;5073729;28;20048;-65
2022/12/02 06:21:10;;;;;;;9.23;6.43;;;;;;;;;;5073799;28;20059;-65
2022/12/02 06:23:43;;;;;;;9.15;6.18;;;;;;;;;;5074080;28;20103;-64
2022/12/02 06:26:13;;;;;;;9.82;6.60;;;;;;;;;;5074056;28;20062;-65
2022/12/02 06:28:40;;;;;;;10.43;7.25;;;;;;;;;;5073922;28;20077;-64
2022/12/02 06:31:14;;;;;;;9.02;6.20;;;;;;;;;;5073695;28;20116;-64
2022/12/02 06:33:42;;;;;;;9.07;6.95;;;;;;;;;;5073390;28;20056;-65
2022/12/02 06:36:14;;;;;;;8.50;6.45;;;;;;;;;;5055480;28;20059;-64
2022/12/02 06:38:55;;;;;;;8.65;6.63;;;;;;;;;;5073687;28;20027;-64
2022/12/02 06:41:23;;;;;;;8.57;6.60;;;;;;;;;;5073733;28;20020;-64
2022/12/02 06:46:35;;;;;;;7.45;6.10;;;;;;;;;;5073688;28;20047;-64
2022/12/02 06:49:11;;;;;;;9.30;6.95;;;;;;;;;;5073310;28;20052;-63
2022/12/02 06:51:37;;;;;;;8.93;6.82;;;;;;;;;;5073312;28;20464;-63
2022/12/02 06:54:12;;;;;;;8.27;6.80;;;;;;;;;;5055355;28;20039;-64
2022/12/02 06:56:40;;;;;;;7.55;6.40;;;;;;;;;;5073453;28;20035;-64
2022/12/02 06:59:11;;;;;;;8.45;6.43;;;;;;;;;;5073352;28;20031;-63
2022/12/02 07:01:43;;;;;;;8.50;6.80;;;;;;;;;;5073119;28;20498;-64
2022/12/02 07:04:09;;;;;;;7.93;6.53;;;;;;;;;;5071000;28;20036;-65
2022/12/02 07:06:43;;;;;;;8.10;6.18;;;;;;;;;;5068934;28;20029;-64
2022/12/02 07:09:13;;;;;;;8.52;6.65;;;;;;;;;;5070682;28;20016;-64
2022/12/02 07:11:52;;;;;;;9.00;7.03;;;;;;;;;;5070893;28;20078;-64
2022/12/02 07:14:26;;;;;;;10.52;7.32;;;;;;;;;;5052543;28;20013;-64
2022/12/02 07:16:59;;;;;;;8.50;6.70;;;;;;;;;;5071027;28;20032;-64
2022/12/02 07:20:05;;;;;;;9.05;6.65;;;;;;;;;;5071421;28;20064;-64
2022/12/02 07:22:37;;;;;;;9.75;6.82;;;;;;;;;;5048650;28;20043;-64
2022/12/02 07:25:08;;;;;;;8.77;7.10;;;;;;;;;;5071206;28;20028;-64
2022/12/02 07:27:38;;;;;;;10.27;6.80;;;;;;;;;;5071446;28;20074;-64
2022/12/02 07:30:42;;;;;;;9.15;6.97;;;;;;;;;;5053702;28;20447;-64
2022/12/02 07:33:07;;;;;;;8.70;6.70;;;;;;;;;;5070262;28;20078;-63
2022/12/02 07:35:33;;;;;;;8.65;6.10;;;;;;;;;;5071251;28;20040;-64
2022/12/02 07:37:58;;;;;;;9.80;6.85;;;;;;;;;;5071314;28;20020;-65
2022/12/02 07:40:24;;;;;;;10.00;6.93;;;;;;;;;;5071152;28;20036;-65
2022/12/02 07:42:50;;;;;;;9.52;6.63;;;;;;;;;;5071365;28;20020;-64
2022/12/02 07:45:18;;;;;;;9.63;6.45;;;;;;;;;;5062944;28;20017;-64
2022/12/02 07:47:44;;;;;;;9.82;7.38;;;;;;;;;;5071548;28;20056;-63
2022/12/02 07:50:11;;;;;;;8.68;6.57;;;;;;;;;;5071157;28;20043;-64
2022/12/02 07:52:37;;;;;;;7.90;6.80;;;;;;;;;;5070319;28;20035;-63
2022/12/02 07:55:03;;;;;;;9.15;7.50;;;;;;;;;;5052973;28;20025;-64
2022/12/02 07:57:29;;;;;;;9.65;6.57;;;;;;;;;;5070556;28;20024;-64
2022/12/02 07:59:54;;;;;;;8.43;6.47;;;;;;;;;;5070537;28;20468;-65
2022/12/02 08:02:20;;;;;;;9.25;7.00;;;;;;;;;;5066357;28;20029;-63
2022/12/02 08:04:46;;;;;;;7.93;6.40;;;;;;;;;;5072340;28;20042;-62
2022/12/02 08:07:12;;;;;;;10.43;6.20;;;;;;;;;;5072095;28;20517;-65
2022/12/02 08:09:37;;;;;;;8.18;6.38;;;;;;;;;;5070609;28;20025;-64
2022/12/02 08:12:03;;;;;;;8.45;6.20;;;;;;;;;;5070422;28;20040;-65
2022/12/02 08:14:28;;;;;;;8.25;6.32;;;;;;;;;;5070773;28;20385;-65
2022/12/02 08:16:54;;;;;;;8.77;6.38;;;;;;;;;;5062691;28;20104;-64
2022/12/02 08:19:19;;;;;;;9.57;6.95;;;;;;;;;;5069087;28;20491;-62
2022/12/02 08:21:45;;;;;;;9.13;6.95;;;;;;;;;;5070288;28;20025;-63
2022/12/02 08:24:10;;;;;;;8.48;6.57;;;;;;;;;;5070491;28;20024;-64
2022/12/02 08:26:36;;;;;;;9.18;6.80;;;;;;;;;;5071519;28;20038;-63
2022/12/02 08:29:02;;;;;;;9.63;6.38;;;;;;;;;;5071626;28;20033;-63
2022/12/02 08:31:27;;;;;;;8.75;6.72;;;;;;;;;;5071391;28;20024;-62
2022/12/02 08:33:53;;;;;;;9.18;7.03;;;;;;;;;;5072963;28;20020;-63
2022/12/02 08:36:20;;;;;;;8.32;6.50;;;;;;;;;;5057665;28;20297;-63
2022/12/02 08:38:46;;;;;;;7.10;6.18;;;;;;;;;;5075662;28;20066;-66
2022/12/02 08:41:12;;;;;;;9.07;7.05;;;;;;;;;;5076069;28;20052;-63
2022/12/02 08:43:38;;;;;;;8.52;6.68;;;;;;;;;;5075585;28;20029;-63
2022/12/02 08:46:04;;;;;;;10.98;6.43;;;;;;;;;;5075633;28;20029;-64
2022/12/02 08:48:30;;;;;;;8.63;6.40;;;;;;;;;;5075841;28;20385;-62
2022/12/02 08:50:56;;;;;;;8.45;6.53;;;;;;;;;;5075658;28;20069;-66
2022/12/02 08:53:22;;;;;;;7.68;6.30;;;;;;;;;;5075690;28;20021;-63
2022/12/02 08:55:48;;;;;;;9.02;6.10;;;;;;;;;;5075392;28;20464;-63
2022/12/02 08:58:14;;;;;;;9.48;6.68;;;;;;;;;;5075235;28;20395;-63
2022/12/02 09:00:39;;;;;;;8.20;6.43;;;;;;;;;;5075329;28;20021;-62
2022/12/02 09:03:09;;;;;;;9.52;7.10;;;;;;;;;;5075362;28;20047;-64
2022/12/02 09:05:36;;;;;;;8.45;6.53;;;;;;;;;;5075317;28;20028;-65
2022/12/02 09:08:02;;;;;;;8.43;6.63;;;;;;;;;;5075259;28;20056;-64
2022/12/02 09:10:28;;;;;;;8.98;6.85;;;;;;;;;;5075502;28;20054;-64
2022/12/02 09:12:54;;;;;;;10.00;6.75;;;;;;;;;;5075117;28;20454;-64
2022/12/02 09:15:20;;;;;;;8.68;6.68;;;;;;;;;;5075080;28;20375;-64
2022/12/02 09:17:46;;;;;;;10.23;6.70;;;;;;;;;;5074872;28;20052;-64
2022/12/02 09:20:12;;;;;;;8.73;6.63;;;;;;;;;;5074889;28;20029;-65
2022/12/02 09:22:38;;;;;;;8.25;6.47;;;;;;;;;;5074971;28;20103;-65
2022/12/02 09:25:05;;;;;;;8.20;6.35;;;;;;;;;;5075270;28;20031;-65
2022/12/02 09:27:30;;;;;;;7.68;6.50;;;;;;;;;;5056866;28;20055;-64
2022/12/02 09:29:56;;;;;;;8.63;6.45;;;;;;;;;;5074823;28;20059;-64
2022/12/02 09:32:22;;;;;;;8.43;6.55;;;;;;;;;;5075044;28;20025;-64
2022/12/02 09:34:47;;;;;;;9.63;7.25;;;;;;;;;;5074703;28;20056;-64
2022/12/02 09:37:13;;;;;;;8.63;6.63;;;;;;;;;;5075054;28;20156;-64
2022/12/02 09:39:38;;;;;;;8.65;6.82;;;;;;;;;;5074782;28;20028;-64
2022/12/02 09:42:08;;;;;;;8.90;6.57;;;;;;;;;;5074570;28;20066;-64
2022/12/02 09:44:35;;;;;;;7.32;5.95;;;;;;;;;;5056652;28;20059;-64
2022/12/02 09:47:01;;;;;;;9.15;6.57;;;;;;;;;;5056546;28;20039;-64
2022/12/02 09:49:26;;;;;;;9.80;6.45;;;;;;;;;;5074723;28;20021;-64
2022/12/02 09:51:57;;;;;;;8.15;6.25;;;;;;;;;;5074732;28;20021;-64
2022/12/02 09:54:22;;;;;;;;;;;;;;;;;;5074845;28;20024;-63
2022/12/02 09:56:48;;;;;;;8.82;6.05;;;;;;;;;;5056268;28;19912;-64
2022/12/02 09:59:15;;;;;;;7.93;6.50;;;;;;;;;;5074347;28;20029;-64
2022/12/02 10:01:46;;;;;;;7.45;6.05;;;;;;;;;;5074582;28;20021;-64
2022/12/02 10:04:17;;;;;;;11.82;6.63;;;;;;;;;;5074421;28;20028;-64
2022/12/02 10:06:42;;;;;;;8.00;6.30;;;;;;;;;;5074291;28;20042;-64
2022/12/02 10:09:14;;;;;;;10.25;6.60;;;;;;;;;;5073346;28;20029;-64
2022/12/02 10:11:40;;;;;;;8.20;6.20;;;;;;;;;;5071440;28;20062;-64
2022/12/02 10:14:08;;;;;;;8.88;6.40;;;;;;;;;;5073010;28;20463;-64
2022/12/02 10:16:34;;;;;;;8.25;6.50;;;;;;;;;;5073979;28;20033;-64
2022/12/02 10:19:02;;;;;;;7.65;6.20;;;;;;;;;;5073728;28;20119;-64
2022/12/02 10:21:28;;;;;;;8.20;6.38;;;;;;;;;;5073847;28;20029;-64
2022/12/02 10:23:59;;;;;;;8.68;6.35;;;;;;;;;;5073800;28;20024;-64
2022/12/02 10:26:25;;;;;;;7.57;5.90;;;;;;;;;;5073844;28;20283;-64
2022/12/02 10:29:05;;;;;;;8.20;6.18;;;;;;;;;;5073782;28;20576;-64
2022/12/02 10:31:31;;;;;;;8.27;6.35;;;;;;;;;;5055883;28;20024;-64
2022/12/02 10:33:57;;;;;;;8.25;6.28;;;;;;;;;;5073949;28;20031;-64
2022/12/02 10:36:40;;;;;;;7.65;6.15;;;;;;;;;;5073576;28;20162;-63
2022/12/02 10:39:32;;;;;;;7.97;5.97;;;;;;;;;;5073535;28;20097;-64
2022/12/02 10:42:04;;;;;;;7.97;6.18;;;;;;;;;;5055783;28;20029;-64
2022/12/02 10:44:31;;;;;;;8.55;6.38;;;;;;;;;;5073623;28;20060;-64
2022/12/02 10:47:16;;;;;;;7.03;5.95;;;;;;;;;;5073424;28;20054;-63
2022/12/02 10:49:53;;;;;;;8.30;6.53;;;;;;;;;;5056501;28;20380;-64
2022/12/02 10:52:29;;;;;;;8.18;5.93;;;;;;;;;;5073257;28;20086;-64
2022/12/02 10:54:57;;;;;;;8.43;5.97;;;;;;;;;;5073012;28;20476;-64
2022/12/02 10:57:25;;;;;;;8.20;5.93;;;;;;;;;;5072675;28;20043;-65
2022/12/02 10:59:53;;;;;;;7.55;6.10;;;;;;;;;;5073074;28;20028;-65
2022/12/02 11:02:29;;;;;;;8.10;6.03;;;;;;;;;;5073307;28;20024;-64
2022/12/02 11:04:57;;;;;;;7.50;6.10;;;;;;;;;;5073131;28;20035;-64
2022/12/02 11:07:23;;;;;;;7.93;5.93;;;;;;;;;;5072893;28;20059;-65
2022/12/02 11:09:53;;;;;;;7.40;6.00;;;;;;;;;;5073194;28;20017;-64
2022/12/02 11:12:34;;;;;;;7.70;6.33;;;;;;;;;;5071403;28;20025;-64
2022/12/02 11:15:01;;;;;;;38.42;17.85;;;;;;;;;;5052763;28;20079;-64
2022/12/02 11:18:02;;;;;;;30.15;14.07;;;;;;;;;;5052675;28;20041;-64
2022/12/02 11:20:29;;;;;;;16.83;9.90;;;;;;;;;;5010748;28;20041;-65
2022/12/02 11:22:58;;;;;;;14.00;8.25;;;;;;;;;;5044667;28;20033;-64
2022/12/02 11:25:42;;;;;;;9.85;7.38;;;;;;;;;;5052678;28;20032;-65
2022/12/02 11:28:29;;;;;;;10.32;7.00;;;;;;;;;;5061940;28;20040;-65
2022/12/02 11:31:10;;;;;;;10.82;7.38;;;;;;;;;;5072692;28;20074;-64
2022/12/02 11:33:42;;;;;;;11.52;7.20;;;;;;;;;;5072563;28;20021;-64
2022/12/02 11:36:08;;;;;;;11.38;7.47;;;;;;;;;;5071301;28;20036;-64
2022/12/02 11:38:51;;;;;;;15.65;7.75;;;;;;;;;;5071173;28;20414;-64
2022/12/02 11:41:21;;;;;;;9.45;6.78;;;;;;;;;;5071003;28;20024;-63
2022/12/02 11:43:46;;;;;;;12.43;7.60;;;;;;;;;;5070841;28;20084;-63
2022/12/02 11:46:15;;;;;;;11.48;7.15;;;;;;;;;;5070837;28;20448;-64
2022/12/02 11:48:55;;;;;;;10.18;7.22;;;;;;;;;;5070826;28;20051;-64
2022/12/02 11:51:38;;;;;;;9.73;6.68;;;;;;;;;;5070776;28;20031;-63
2022/12/02 11:54:09;;;;;;;9.60;6.38;;;;;;;;;;5070678;28;20384;-63
2022/12/02 11:56:37;;;;;;;10.10;6.97;;;;;;;;;;5070782;28;20025;-64
2022/12/02 11:59:18;;;;;;;9.13;7.25;;;;;;;;;;5052638;28;20059;-64
2022/12/02 12:01:44;;;;;;;11.48;6.85;;;;;;;;;;5071039;28;20481;-64
2022/12/02 12:04:23;;;;;;;9.60;7.13;;;;;;;;;;5068142;28;20052;-63
2022/12/02 12:06:59;;;;;;;7.50;6.13;;;;;;;;;;5069911;28;20028;-63
2022/12/02 12:09:26;;;;;;;8.63;6.88;;;;;;;;;;5072201;28;20045;-64
2022/12/02 12:12:11;;;;;;;11.18;7.00;;;;;;;;;;5074748;28;20519;-64
2022/12/02 12:14:58;;;;;;;9.57;7.03;;;;;;;;;;5072857;28;20039;-64
2022/12/02 12:17:37;;;;;;;9.88;6.22;;;;;;;;;;5072974;28;20040;-64
2022/12/02 12:20:05;;;;;;;9.68;6.50;;;;;;;;;;5071801;28;20043;-64
2022/12/02 12:22:30;;;;;;;8.80;7.03;;;;;;;;;;5073559;28;20021;-63
2022/12/02 12:25:34;;;;;;;8.10;6.53;;;;;;;;;;5074522;28;20039;-64
2022/12/02 12:27:59;;;;;;;9.05;6.68;;;;;;;;;;5056351;28;20028;-64
2022/12/02 12:30:25;;;;;;;9.25;6.60;;;;;;;;;;5074548;28;20021;-63
2022/12/02 12:32:51;;;;;;;8.73;6.75;;;;;;;;;;5074283;28;20042;-63
2022/12/02 12:35:16;;;;;;;9.43;6.70;;;;;;;;;;5074360;28;20082;-64
2022/12/02 12:37:42;;;;;;;9.38;7.07;;;;;;;;;;5072503;28;20050;-64
2022/12/02 12:40:08;;;;;;;8.00;6.90;;;;;;;;;;5073948;28;20059;-64
2022/12/02 12:42:34;;;;;;;11.80;6.97;;;;;;;;;;5073014;28;20035;-64
2022/12/02 12:44:59;;;;;;;10.30;7.15;;;;;;;;;;5074211;28;20459;-64
2022/12/02 12:47:25;;;;;;;8.93;6.55;;;;;;;;;;5071397;28;20025;-64
2022/12/02 12:49:50;;;;;;;7.78;6.22;;;;;;;;;;5050892;28;20029;-64
2022/12/02 12:52:16;;;;;;;8.98;6.75;;;;;;;;;;5072159;28;20028;-64
2022/12/02 12:54:41;;;;;;;11.45;6.93;;;;;;;;;;5073354;28;20435;-63
2022/12/02 12:57:07;;;;;;;8.05;6.00;;;;;;;;;;5074207;28;20028;-64
2022/12/02 12:59:32;;;;;;;9.38;6.60;;;;;;;;;;5055892;28;20076;-63
2022/12/02 13:01:58;;;;;;;7.80;6.28;;;;;;;;;;5073814;28;20028;-63
2022/12/02 13:04:23;;;;;;;10.50;6.63;;;;;;;;;;5074069;28;20115;-63
2022/12/02 13:06:49;;;;;;;9.05;6.95;;;;;;;;;;5072404;28;20036;-64
2022/12/02 13:09:15;;;;;;;9.50;6.55;;;;;;;;;;5073720;28;20519;-63
2022/12/02 13:11:41;;;;;;;8.77;6.78;;;;;;;;;;5072381;28;20641;-64
2022/12/02 13:14:07;;;;;;;9.13;6.40;;;;;;;;;;5072396;28;20036;-63
2022/12/02 13:16:32;;;;;;;10.55;7.10;;;;;;;;;;5073454;28;20035;-63
2022/12/02 13:18:58;;;;;;;9.35;7.18;;;;;;;;;;5073841;28;20040;-64
2022/12/02 13:21:23;;;;;;;9.45;6.15;;;;;;;;;;5074666;28;20142;-63
2022/12/02 13:23:49;;;;;;;8.80;6.65;;;;;;;;;;5072970;28;20035;-64
2022/12/02 13:26:14;;;;;;;8.75;6.55;;;;;;;;;;5070539;28;20017;-64
2022/12/02 13:28:40;;;;;;;7.70;6.32;;;;;;;;;;5073262;28;20061;-64
2022/12/02 13:31:06;;;;;;;11.80;6.45;;;;;;;;;;5074908;28;20051;-64
2022/12/02 13:33:31;;;;;;;9.48;7.00;;;;;;;;;;5055684;28;20178;-64
2022/12/02 13:35:57;;;;;;;8.98;6.15;;;;;;;;;;5073009;28;20032;-64
2022/12/02 13:38:22;;;;;;;12.23;6.70;;;;;;;;;;5073420;28;20098;-63
2022/12/02 13:40:48;;;;;;;8.27;6.40;;;;;;;;;;5055175;28;20035;-64
2022/12/02 13:43:13;;;;;;;9.80;7.30;;;;;;;;;;5072518;28;20109;-64
2022/12/02 13:45:40;;;;;;;8.43;6.32;;;;;;;;;;5072092;28;20028;-64
2022/12/02 13:48:06;;;;;;;8.57;6.30;;;;;;;;;;5055043;28;20082;-63
2022/12/02 13:50:32;;;;;;;9.75;6.55;;;;;;;;;;5054750;28;20112;-63
2022/12/02 13:52:58;;;;;;;10.77;7.03;;;;;;;;;;5069376;28;20028;-65
2022/12/02 13:55:23;;;;;;;9.68;7.72;;;;;;;;;;5072684;28;20029;-63
2022/12/02 13:57:49;;;;;;;11.02;7.90;;;;;;;;;;5054705;28;20055;-64
2022/12/02 14:00:15;;;;;;;10.13;6.97;;;;;;;;;;5070526;28;20024;-63
2022/12/02 14:02:41;;;;;;;11.18;7.32;;;;;;;;;;5072665;28;20072;-63
2022/12/02 14:05:07;;;;;;;10.80;6.68;;;;;;;;;;5071400;28;20421;-64
2022/12/02 14:07:33;;;;;;;11.30;6.90;;;;;;;;;;5070741;28;20028;-64
2022/12/02 14:09:59;;;;;;;9.15;6.95;;;;;;;;;;5072680;28;20031;-63
2022/12/02 14:12:24;;;;;;;11.93;7.38;;;;;;;;;;5072523;28;20024;-63
2022/12/02 14:14:50;;;;;;;10.93;7.15;;;;;;;;;;5072307;28;20025;-64
2022/12/02 14:17:15;;;;;;;14.90;7.47;;;;;;;;;;5072229;28;20029;-64
2022/12/02 14:19:41;;;;;;;11.05;7.10;;;;;;;;;;5072436;28;20089;-64
2022/12/02 14:22:06;;;;;;;11.48;7.60;;;;;;;;;;5072279;28;20029;-64
2022/12/02 14:24:32;;;;;;;11.95;7.93;;;;;;;;;;5072301;28;20029;-62
2022/12/02 14:26:57;;;;;;;11.35;7.97;;;;;;;;;;5070915;28;20040;-62
2022/12/02 14:29:23;;;;;;;13.85;8.80;;;;;;;;;;5072040;28;20051;-63
2022/12/02 14:31:48;;;;;;;11.45;8.13;;;;;;;;;;5071541;28;20025;-62
2022/12/02 14:34:14;;;;;;;10.38;7.70;;;;;;;;;;5071225;28;21708;-62
2022/12/02 14:36:41;;;;;;;12.48;7.90;;;;;;;;;;5071413;28;20028;-64
2022/12/02 14:39:08;;;;;;;21.33;12.40;;;;;;;;;;5052927;28;20035;-65
2022/12/02 14:41:33;;;;;;;22.77;13.55;;;;;;;;;;5072128;28;20040;-65
2022/12/02 14:43:59;;;;;;;25.90;15.85;;;;;;;;;;5071931;28;20660;-65
2022/12/02 14:46:29;;;;;;;23.65;15.90;;;;;;;;;;5072138;28;20024;-64
2022/12/02 14:48:55;;;;;;;25.75;15.77;;;;;;;;;;5065562;28;20025;-65
2022/12/02 14:51:21;;;;;;;23.63;16.08;;;;;;;;;;5063323;28;20036;-63